sensor_id;sensor_type;location;lat;lon;timestamp;temperature;humidity
47961;DHT22;33721;48.852;9.936;2023-02-03T00:00:27;4.10;99.90
47961;DHT22;33721;48.852;9.936;2023-02-03T00:02:56;4.10;99.90
47961;DHT22;33721;48.852;9.936;2023-02-03T00:05:22;4.10;99.90
47961;DHT22;33721;48.852;9.936;2023-02-03T00:07:48;4.10;99.90
47961;DHT22;33721;48.852;9.936;2023-02-03T00:10:15;4.10;99.90
47961;DHT22;33721;48.852;9.936;2023-02-03T00:12:49;4.10;99.90
47961;DHT22;33721;48.852;9.936;2023-02-03T00:15:15;4.20;99.90
47961;DHT22;33721;48.852;9.936;2023-02-03T00:17:40;4.10;99.90
47961;DHT22;33721;48.852;9.936;2023-02-03T00:20:06;4.20;99.90
47961;DHT22;33721;48.852;9.936;2023-02-03T00:22:32;4.20;99.90
47961;DHT22;33721;48.852;9.936;2023-02-03T00:24:58;4.20;99.90
47961;DHT22;33721;48.852;9.936;2023-02-03T00:27:25;4.20;99.90
47961;DHT22;33721;48.852;9.936;2023-02-03T00:29:50;4.20;99.90
47961;DHT22;33721;48.852;9.936;2023-02-03T00:32:16;4.20;99.90
47961;DHT22;33721;48.852;9.936;2023-02-03T00:34:42;4.30;99.90
47961;DHT22;33721;48.852;9.936;2023-02-03T00:37:07;4.30;99.90
47961;DHT22;33721;48.852;9.936;2023-02-03T00:39:35;4.30;99.90
47961;DHT22;33721;48.852;9.936;2023-02-03T00:42:03;4.30;99.90
47961;DHT22;33721;48.852;9.936;2023-02-03T00:44:28;4.30;99.90
47961;DHT22;33721;48.852;9.936;2023-02-03T00:46:54;4.30;99.90
47961;DHT22;33721;48.852;9.936;2023-02-03T00:49:20;4.30;99.90
47961;DHT22;33721;48.852;9.936;2023-02-03T00:51:45;4.40;99.90
47961;DHT22;33721;48.852;9.936;2023-02-03T00:54:11;4.30;99.90
47961;DHT22;33721;48.852;9.936;2023-02-03T00:56:38;4.30;99.90
47961;DHT22;33721;48.852;9.936;2023-02-03T00:59:04;4.30;99.90
47961;DHT22;33721;48.852;9.936;2023-02-03T01:01:30;4.40;99.90
47961;DHT22;33721;48.852;9.936;2023-02-03T01:03:55;4.40;99.90
47961;DHT22;33721;48.852;9.936;2023-02-03T01:06:22;4.40;99.90
47961;DHT22;33721;48.852;9.936;2023-02-03T01:08:48;4.40;99.90
47961;DHT22;33721;48.852;9.936;2023-02-03T01:11:22;4.40;99.90
47961;DHT22;33721;48.852;9.936;2023-02-03T01:13:48;4.40;99.90
47961;DHT22;33721;48.852;9.936;2023-02-03T01:16:16;4.40;99.90
47961;DHT22;33721;48.852;9.936;2023-02-03T01:18:42;4.40;99.90
47961;DHT22;33721;48.852;9.936;2023-02-03T01:21:14;4.40;99.90
47961;DHT22;33721;48.852;9.936;2023-02-03T01:23:41;4.40;99.90
47961;DHT22;33721;48.852;9.936;2023-02-03T01:26:09;4.40;99.90
47961;DHT22;33721;48.852;9.936;2023-02-03T01:28:36;4.40;99.90
47961;DHT22;33721;48.852;9.936;2023-02-03T01:33:35;4.40;99.90
47961;DHT22;33721;48.852;9.936;2023-02-03T01:36:01;4.40;99.90
47961;DHT22;33721;48.852;9.936;2023-02-03T01:38:27;4.40;99.90
47961;DHT22;33721;48.852;9.936;2023-02-03T01:40:52;4.40;99.90
47961;DHT22;33721;48.852;9.936;2023-02-03T01:43:42;4.40;99.90
47961;DHT22;33721;48.852;9.936;2023-02-03T01:46:24;4.40;99.90
47961;DHT22;33721;48.852;9.936;2023-02-03T01:48:52;4.40;99.90
47961;DHT22;33721;48.852;9.936;2023-02-03T01:51:21;4.40;99.90
47961;DHT22;33721;48.852;9.936;2023-02-03T01:53:49;4.40;99.90
47961;DHT22;33721;48.852;9.936;2023-02-03T01:56:16;4.40;99.90
47961;DHT22;33721;48.852;9.936;2023-02-03T01:58:43;4.40;99.90
47961;DHT22;33721;48.852;9.936;2023-02-03T02:01:10;4.40;99.90
47961;DHT22;33721;48.852;9.936;2023-02-03T02:03:41;4.40;99.90
47961;DHT22;33721;48.852;9.936;2023-02-03T02:06:09;4.40;99.90
47961;DHT22;33721;48.852;9.936;2023-02-03T02:08:36;4.40;99.90
47961;DHT22;33721;48.852;9.936;2023-02-03T02:11:02;4.40;99.90
47961;DHT22;33721;48.852;9.936;2023-02-03T02:13:32;4.40;99.90
47961;DHT22;33721;48.852;9.936;2023-02-03T02:16:12;4.40;99.90
47961;DHT22;33721;48.852;9.936;2023-02-03T02:26:53;4.40;99.90
47961;DHT22;33721;48.852;9.936;2023-02-03T02:37:58;4.30;99.90
47961;DHT22;33721;48.852;9.936;2023-02-03T02:40:36;4.40;99.90
47961;DHT22;33721;48.852;9.936;2023-02-03T02:43:42;4.30;99.90
47961;DHT22;33721;48.852;9.936;2023-02-03T02:46:12;4.30;99.90
47961;DHT22;33721;48.852;9.936;2023-02-03T02:49:02;4.30;99.90
47961;DHT22;33721;48.852;9.936;2023-02-03T02:51:30;4.30;99.90
47961;DHT22;33721;48.852;9.936;2023-02-03T02:54:00;4.40;99.90
47961;DHT22;33721;48.852;9.936;2023-02-03T02:56:28;4.40;99.90
47961;DHT22;33721;48.852;9.936;2023-02-03T02:58:56;4.40;99.90
47961;DHT22;33721;48.852;9.936;2023-02-03T03:01:23;4.40;99.90
47961;DHT22;33721;48.852;9.936;2023-02-03T03:03:49;4.40;99.90
47961;DHT22;33721;48.852;9.936;2023-02-03T03:06:27;4.40;99.90
47961;DHT22;33721;48.852;9.936;2023-02-03T03:09:04;4.40;99.90
47961;DHT22;33721;48.852;9.936;2023-02-03T03:11:36;4.30;99.90
47961;DHT22;33721;48.852;9.936;2023-02-03T03:14:05;4.40;99.90
47961;DHT22;33721;48.852;9.936;2023-02-03T03:16:36;4.40;99.90
47961;DHT22;33721;48.852;9.936;2023-02-03T03:19:11;4.40;99.90
47961;DHT22;33721;48.852;9.936;2023-02-03T03:21:42;4.40;99.90
47961;DHT22;33721;48.852;9.936;2023-02-03T03:24:13;4.40;99.90
47961;DHT22;33721;48.852;9.936;2023-02-03T03:26:49;4.40;99.90
47961;DHT22;33721;48.852;9.936;2023-02-03T03:29:30;4.40;99.90
47961;DHT22;33721;48.852;9.936;2023-02-03T03:32:00;4.40;99.90
47961;DHT22;33721;48.852;9.936;2023-02-03T03:34:26;4.50;99.90
47961;DHT22;33721;48.852;9.936;2023-02-03T03:36:59;4.50;99.90
47961;DHT22;33721;48.852;9.936;2023-02-03T03:39:55;4.60;99.90
47961;DHT22;33721;48.852;9.936;2023-02-03T03:50:36;4.50;99.90
47961;DHT22;33721;48.852;9.936;2023-02-03T03:53:03;4.50;99.90
47961;DHT22;33721;48.852;9.936;2023-02-03T03:55:32;4.60;99.90
47961;DHT22;33721;48.852;9.936;2023-02-03T03:58:07;4.60;99.90
47961;DHT22;33721;48.852;9.936;2023-02-03T04:00:36;4.60;99.90
47961;DHT22;33721;48.852;9.936;2023-02-03T04:03:30;4.60;99.90
47961;DHT22;33721;48.852;9.936;2023-02-03T04:05:57;4.60;99.90
47961;DHT22;33721;48.852;9.936;2023-02-03T04:08:22;4.60;99.90
47961;DHT22;33721;48.852;9.936;2023-02-03T04:10:48;4.60;99.90
47961;DHT22;33721;48.852;9.936;2023-02-03T04:13:14;4.60;99.90
47961;DHT22;33721;48.852;9.936;2023-02-03T04:15:40;4.70;99.90
47961;DHT22;33721;48.852;9.936;2023-02-03T04:18:06;4.60;99.90
47961;DHT22;33721;48.852;9.936;2023-02-03T04:20:32;4.70;99.90
47961;DHT22;33721;48.852;9.936;2023-02-03T04:22:58;4.70;99.90
47961;DHT22;33721;48.852;9.936;2023-02-03T04:25:24;4.70;99.90
47961;DHT22;33721;48.852;9.936;2023-02-03T04:27:50;4.60;99.90
47961;DHT22;33721;48.852;9.936;2023-02-03T04:30:15;4.60;99.90
47961;DHT22;33721;48.852;9.936;2023-02-03T04:32:43;4.60;99.90
47961;DHT22;33721;48.852;9.936;2023-02-03T04:35:09;4.70;99.90
47961;DHT22;33721;48.852;9.936;2023-02-03T04:37:35;4.60;99.90
47961;DHT22;33721;48.852;9.936;2023-02-03T04:40:01;4.60;99.90
47961;DHT22;33721;48.852;9.936;2023-02-03T04:42:26;4.60;99.90
47961;DHT22;33721;48.852;9.936;2023-02-03T04:44:52;4.60;99.90
47961;DHT22;33721;48.852;9.936;2023-02-03T04:47:18;4.60;99.90
47961;DHT22;33721;48.852;9.936;2023-02-03T04:49:44;4.70;99.90
47961;DHT22;33721;48.852;9.936;2023-02-03T04:52:11;4.70;99.90
47961;DHT22;33721;48.852;9.936;2023-02-03T04:54:37;4.70;99.90
47961;DHT22;33721;48.852;9.936;2023-02-03T04:57:03;4.70;99.90
47961;DHT22;33721;48.852;9.936;2023-02-03T04:59:28;4.70;99.90
47961;DHT22;33721;48.852;9.936;2023-02-03T05:01:56;4.60;99.90
47961;DHT22;33721;48.852;9.936;2023-02-03T05:04:22;4.70;99.90
47961;DHT22;33721;48.852;9.936;2023-02-03T05:06:48;4.60;99.90
47961;DHT22;33721;48.852;9.936;2023-02-03T05:09:14;4.60;99.90
47961;DHT22;33721;48.852;9.936;2023-02-03T05:11:40;4.60;99.90
47961;DHT22;33721;48.852;9.936;2023-02-03T05:14:06;4.60;99.90
47961;DHT22;33721;48.852;9.936;2023-02-03T05:16:32;4.60;99.90
47961;DHT22;33721;48.852;9.936;2023-02-03T05:18:57;4.60;99.90
47961;DHT22;33721;48.852;9.936;2023-02-03T05:21:23;4.60;99.90
47961;DHT22;33721;48.852;9.936;2023-02-03T05:23:49;4.50;99.90
47961;DHT22;33721;48.852;9.936;2023-02-03T05:26:15;4.50;99.90
47961;DHT22;33721;48.852;9.936;2023-02-03T05:28:40;4.50;99.90
47961;DHT22;33721;48.852;9.936;2023-02-03T05:31:06;4.50;99.90
47961;DHT22;33721;48.852;9.936;2023-02-03T05:33:32;4.50;99.90
47961;DHT22;33721;48.852;9.936;2023-02-03T05:35:57;4.40;99.90
47961;DHT22;33721;48.852;9.936;2023-02-03T05:38:26;4.50;99.90
47961;DHT22;33721;48.852;9.936;2023-02-03T05:40:52;4.50;99.90
47961;DHT22;33721;48.852;9.936;2023-02-03T05:43:36;4.40;99.90
47961;DHT22;33721;48.852;9.936;2023-02-03T05:46:04;4.40;99.90
47961;DHT22;33721;48.852;9.936;2023-02-03T05:48:30;4.40;99.90
47961;DHT22;33721;48.852;9.936;2023-02-03T05:50:56;4.50;99.90
47961;DHT22;33721;48.852;9.936;2023-02-03T05:53:22;4.50;99.90
47961;DHT22;33721;48.852;9.936;2023-02-03T05:55:48;4.50;99.90
47961;DHT22;33721;48.852;9.936;2023-02-03T05:58:14;4.50;99.90
47961;DHT22;33721;48.852;9.936;2023-02-03T06:00:40;4.40;99.90
47961;DHT22;33721;48.852;9.936;2023-02-03T06:03:06;4.50;99.90
47961;DHT22;33721;48.852;9.936;2023-02-03T06:05:33;4.50;99.90
47961;DHT22;33721;48.852;9.936;2023-02-03T06:07:59;4.40;99.90
47961;DHT22;33721;48.852;9.936;2023-02-03T06:10:25;4.40;99.90
47961;DHT22;33721;48.852;9.936;2023-02-03T06:12:50;4.40;99.90
47961;DHT22;33721;48.852;9.936;2023-02-03T06:15:17;4.40;99.90
47961;DHT22;33721;48.852;9.936;2023-02-03T06:17:44;4.40;99.90
47961;DHT22;33721;48.852;9.936;2023-02-03T06:20:10;4.40;99.90
47961;DHT22;33721;48.852;9.936;2023-02-03T06:22:36;4.40;99.90
47961;DHT22;33721;48.852;9.936;2023-02-03T06:25:03;4.40;99.90
47961;DHT22;33721;48.852;9.936;2023-02-03T06:27:28;4.40;99.90
47961;DHT22;33721;48.852;9.936;2023-02-03T06:29:54;4.40;99.90
47961;DHT22;33721;48.852;9.936;2023-02-03T06:32:22;4.40;99.90
47961;DHT22;33721;48.852;9.936;2023-02-03T06:34:48;4.40;99.90
47961;DHT22;33721;48.852;9.936;2023-02-03T06:37:14;4.40;99.90
47961;DHT22;33721;48.852;9.936;2023-02-03T06:39:39;4.40;99.90
47961;DHT22;33721;48.852;9.936;2023-02-03T06:42:05;4.40;99.90
47961;DHT22;33721;48.852;9.936;2023-02-03T06:44:31;4.30;99.90
47961;DHT22;33721;48.852;9.936;2023-02-03T06:46:56;4.40;99.90
47961;DHT22;33721;48.852;9.936;2023-02-03T06:49:23;4.30;99.90
47961;DHT22;33721;48.852;9.936;2023-02-03T06:51:49;4.30;99.90
47961;DHT22;33721;48.852;9.936;2023-02-03T06:54:14;4.30;99.90
47961;DHT22;33721;48.852;9.936;2023-02-03T06:56:40;4.40;99.90
47961;DHT22;33721;48.852;9.936;2023-02-03T06:59:06;4.30;99.90
47961;DHT22;33721;48.852;9.936;2023-02-03T07:01:33;4.30;99.90
47961;DHT22;33721;48.852;9.936;2023-02-03T07:03:58;4.20;99.90
47961;DHT22;33721;48.852;9.936;2023-02-03T07:06:25;4.30;99.90
47961;DHT22;33721;48.852;9.936;2023-02-03T07:08:54;4.30;99.90
47961;DHT22;33721;48.852;9.936;2023-02-03T07:11:20;4.20;99.90
47961;DHT22;33721;48.852;9.936;2023-02-03T07:13:46;4.30;99.90
47961;DHT22;33721;48.852;9.936;2023-02-03T07:16:12;4.20;99.90
47961;DHT22;33721;48.852;9.936;2023-02-03T07:18:37;4.30;99.90
47961;DHT22;33721;48.852;9.936;2023-02-03T07:21:04;4.30;99.90
47961;DHT22;33721;48.852;9.936;2023-02-03T07:23:30;4.20;99.90
47961;DHT22;33721;48.852;9.936;2023-02-03T07:26:01;4.20;99.90
47961;DHT22;33721;48.852;9.936;2023-02-03T07:28:27;4.30;99.90
47961;DHT22;33721;48.852;9.936;2023-02-03T07:30:53;4.30;99.90
47961;DHT22;33721;48.852;9.936;2023-02-03T07:33:18;4.30;99.90
47961;DHT22;33721;48.852;9.936;2023-02-03T07:35:51;4.30;99.90
47961;DHT22;33721;48.852;9.936;2023-02-03T07:38:16;4.30;99.90
47961;DHT22;33721;48.852;9.936;2023-02-03T07:40:42;4.30;99.90
47961;DHT22;33721;48.852;9.936;2023-02-03T07:43:08;4.30;99.90
47961;DHT22;33721;48.852;9.936;2023-02-03T07:45:33;4.30;99.90
47961;DHT22;33721;48.852;9.936;2023-02-03T07:47:59;4.30;99.90
47961;DHT22;33721;48.852;9.936;2023-02-03T07:50:25;4.30;99.90
47961;DHT22;33721;48.852;9.936;2023-02-03T07:52:50;4.30;99.90
47961;DHT22;33721;48.852;9.936;2023-02-03T07:55:16;4.30;99.90
47961;DHT22;33721;48.852;9.936;2023-02-03T07:57:42;4.30;99.90
47961;DHT22;33721;48.852;9.936;2023-02-03T08:00:11;4.30;99.90
47961;DHT22;33721;48.852;9.936;2023-02-03T08:02:38;4.30;99.90
47961;DHT22;33721;48.852;9.936;2023-02-03T08:05:04;4.30;99.90
47961;DHT22;33721;48.852;9.936;2023-02-03T08:07:30;4.40;99.90
47961;DHT22;33721;48.852;9.936;2023-02-03T08:09:55;4.40;99.90
47961;DHT22;33721;48.852;9.936;2023-02-03T08:12:21;4.40;99.90
47961;DHT22;33721;48.852;9.936;2023-02-03T08:14:47;4.40;99.90
47961;DHT22;33721;48.852;9.936;2023-02-03T08:17:12;4.50;99.90
47961;DHT22;33721;48.852;9.936;2023-02-03T08:19:38;4.40;99.90
47961;DHT22;33721;48.852;9.936;2023-02-03T08:22:03;4.40;99.90
47961;DHT22;33721;48.852;9.936;2023-02-03T08:24:29;4.40;99.90
47961;DHT22;33721;48.852;9.936;2023-02-03T08:26:55;4.40;99.90
47961;DHT22;33721;48.852;9.936;2023-02-03T08:29:20;4.40;99.90
47961;DHT22;33721;48.852;9.936;2023-02-03T08:31:46;4.40;99.90
47961;DHT22;33721;48.852;9.936;2023-02-03T08:34:12;4.50;99.90
47961;DHT22;33721;48.852;9.936;2023-02-03T08:36:37;4.50;99.90
47961;DHT22;33721;48.852;9.936;2023-02-03T08:39:05;4.40;99.90
47961;DHT22;33721;48.852;9.936;2023-02-03T08:41:31;4.40;99.90
47961;DHT22;33721;48.852;9.936;2023-02-03T08:43:58;4.40;99.90
47961;DHT22;33721;48.852;9.936;2023-02-03T08:46:24;4.40;99.90
47961;DHT22;33721;48.852;9.936;2023-02-03T08:48:49;4.40;99.90
47961;DHT22;33721;48.852;9.936;2023-02-03T08:51:17;4.40;99.90
47961;DHT22;33721;48.852;9.936;2023-02-03T08:53:43;4.40;99.90
47961;DHT22;33721;48.852;9.936;2023-02-03T08:56:10;4.40;99.90
47961;DHT22;33721;48.852;9.936;2023-02-03T08:58:36;4.50;99.90
47961;DHT22;33721;48.852;9.936;2023-02-03T09:01:14;4.50;99.90
47961;DHT22;33721;48.852;9.936;2023-02-03T09:03:40;4.50;99.90
47961;DHT22;33721;48.852;9.936;2023-02-03T09:06:06;4.50;99.90
47961;DHT22;33721;48.852;9.936;2023-02-03T09:08:33;4.50;99.90
47961;DHT22;33721;48.852;9.936;2023-02-03T09:10:58;4.50;99.90
47961;DHT22;33721;48.852;9.936;2023-02-03T09:13:24;4.50;99.90
47961;DHT22;33721;48.852;9.936;2023-02-03T09:15:50;4.40;99.90
47961;DHT22;33721;48.852;9.936;2023-02-03T09:18:16;4.50;99.90
47961;DHT22;33721;48.852;9.936;2023-02-03T09:20:42;4.50;99.90
47961;DHT22;33721;48.852;9.936;2023-02-03T09:23:07;4.50;99.90
47961;DHT22;33721;48.852;9.936;2023-02-03T09:25:33;4.50;99.90
47961;DHT22;33721;48.852;9.936;2023-02-03T09:28:01;4.50;99.90
47961;DHT22;33721;48.852;9.936;2023-02-03T09:30:27;4.60;99.90
47961;DHT22;33721;48.852;9.936;2023-02-03T09:32:56;4.60;99.90
47961;DHT22;33721;48.852;9.936;2023-02-03T09:35:23;4.60;99.90
47961;DHT22;33721;48.852;9.936;2023-02-03T09:37:52;4.60;99.90
47961;DHT22;33721;48.852;9.936;2023-02-03T09:40:28;4.60;99.90
47961;DHT22;33721;48.852;9.936;2023-02-03T09:42:59;4.60;99.90
47961;DHT22;33721;48.852;9.936;2023-02-03T09:45:28;4.60;99.90
47961;DHT22;33721;48.852;9.936;2023-02-03T09:47:59;4.60;99.90
47961;DHT22;33721;48.852;9.936;2023-02-03T09:50:29;4.60;99.90
47961;DHT22;33721;48.852;9.936;2023-02-03T09:52:57;4.60;99.90
47961;DHT22;33721;48.852;9.936;2023-02-03T09:55:34;4.60;99.90
47961;DHT22;33721;48.852;9.936;2023-02-03T10:16:52;4.80;99.90
47961;DHT22;33721;48.852;9.936;2023-02-03T10:19:26;4.80;99.90
47961;DHT22;33721;48.852;9.936;2023-02-03T10:21:59;4.70;99.90
47961;DHT22;33721;48.852;9.936;2023-02-03T10:24:39;4.80;99.90
47961;DHT22;33721;48.852;9.936;2023-02-03T10:27:29;4.70;99.90
47961;DHT22;33721;48.852;9.936;2023-02-03T10:32:31;4.80;99.90
47961;DHT22;33721;48.852;9.936;2023-02-03T10:34:59;4.80;99.90
47961;DHT22;33721;48.852;9.936;2023-02-03T10:37:48;4.80;99.90
47961;DHT22;33721;48.852;9.936;2023-02-03T10:40:15;4.80;99.90
47961;DHT22;33721;48.852;9.936;2023-02-03T10:42:47;4.80;99.90
47961;DHT22;33721;48.852;9.936;2023-02-03T10:45:36;4.80;99.90
47961;DHT22;33721;48.852;9.936;2023-02-03T10:48:03;4.90;99.90
47961;DHT22;33721;48.852;9.936;2023-02-03T10:50:29;4.90;99.90
47961;DHT22;33721;48.852;9.936;2023-02-03T10:55:42;4.90;99.90
47961;DHT22;33721;48.852;9.936;2023-02-03T10:58:15;5.00;99.90
47961;DHT22;33721;48.852;9.936;2023-02-03T11:00:42;5.00;99.90
47961;DHT22;33721;48.852;9.936;2023-02-03T11:06:09;5.10;99.90
47961;DHT22;33721;48.852;9.936;2023-02-03T11:08:37;5.10;99.90
47961;DHT22;33721;48.852;9.936;2023-02-03T11:11:08;5.10;99.90
47961;DHT22;33721;48.852;9.936;2023-02-03T11:13:35;5.20;99.90
47961;DHT22;33721;48.852;9.936;2023-02-03T11:16:03;5.20;99.90
47961;DHT22;33721;48.852;9.936;2023-02-03T11:18:43;5.30;99.90
47961;DHT22;33721;48.852;9.936;2023-02-03T11:24:05;5.30;99.90
47961;DHT22;33721;48.852;9.936;2023-02-03T11:26:41;5.30;99.90
47961;DHT22;33721;48.852;9.936;2023-02-03T11:29:33;5.30;99.90
47961;DHT22;33721;48.852;9.936;2023-02-03T11:34:56;5.40;99.90
47961;DHT22;33721;48.852;9.936;2023-02-03T11:37:41;5.40;99.90
47961;DHT22;33721;48.852;9.936;2023-02-03T11:42:34;5.40;99.90
47961;DHT22;33721;48.852;9.936;2023-02-03T11:45:13;5.40;99.90
47961;DHT22;33721;48.852;9.936;2023-02-03T12:23:20;5.30;99.90
47961;DHT22;33721;48.852;9.936;2023-02-03T12:26:02;5.30;99.90
47961;DHT22;33721;48.852;9.936;2023-02-03T12:31:33;5.30;99.90
47961;DHT22;33721;48.852;9.936;2023-02-03T12:37:16;5.30;99.90
47961;DHT22;33721;48.852;9.936;2023-02-03T12:39:49;5.30;99.90
47961;DHT22;33721;48.852;9.936;2023-02-03T12:42:31;5.30;99.90
47961;DHT22;33721;48.852;9.936;2023-02-03T12:45:08;5.30;99.90
47961;DHT22;33721;48.852;9.936;2023-02-03T12:47:41;5.30;99.90
47961;DHT22;33721;48.852;9.936;2023-02-03T12:50:48;5.30;99.90
47961;DHT22;33721;48.852;9.936;2023-02-03T12:53:31;5.30;99.90
47961;DHT22;33721;48.852;9.936;2023-02-03T12:56:04;5.30;99.90
47961;DHT22;33721;48.852;9.936;2023-02-03T12:58:49;5.30;99.90
47961;DHT22;33721;48.852;9.936;2023-02-03T13:01:27;5.30;99.90
47961;DHT22;33721;48.852;9.936;2023-02-03T13:09:44;5.30;99.90
47961;DHT22;33721;48.852;9.936;2023-02-03T13:12:13;5.30;99.90
47961;DHT22;33721;48.852;9.936;2023-02-03T13:19:45;5.40;99.90
47961;DHT22;33721;48.852;9.936;2023-02-03T13:22:14;5.40;99.90
47961;DHT22;33721;48.852;9.936;2023-02-03T13:24:47;5.40;99.90
47961;DHT22;33721;48.852;9.936;2023-02-03T13:27:25;5.40;99.90
47961;DHT22;33721;48.852;9.936;2023-02-03T13:33:01;5.40;99.90
47961;DHT22;33721;48.852;9.936;2023-02-03T13:43:50;5.30;99.90
47961;DHT22;33721;48.852;9.936;2023-02-03T13:46:26;5.30;99.90
47961;DHT22;33721;48.852;9.936;2023-02-03T13:48:56;5.20;99.90
47961;DHT22;33721;48.852;9.936;2023-02-03T13:51:43;5.30;99.90
47961;DHT22;33721;48.852;9.936;2023-02-03T13:54:26;5.20;99.90
47961;DHT22;33721;48.852;9.936;2023-02-03T13:57:00;5.20;99.90
47961;DHT22;33721;48.852;9.936;2023-02-03T13:59:43;5.20;99.90
47961;DHT22;33721;48.852;9.936;2023-02-03T14:15:29;5.20;99.90
47961;DHT22;33721;48.852;9.936;2023-02-03T14:18:02;5.10;99.90
47961;DHT22;33721;48.852;9.936;2023-02-03T14:25:58;5.20;99.90
47961;DHT22;33721;48.852;9.936;2023-02-03T14:28:45;5.20;99.90
47961;DHT22;33721;48.852;9.936;2023-02-03T14:31:19;5.10;99.90
47961;DHT22;33721;48.852;9.936;2023-02-03T14:38:56;5.10;99.90
47961;DHT22;33721;48.852;9.936;2023-02-03T14:46:42;5.20;99.90
47961;DHT22;33721;48.852;9.936;2023-02-03T14:49:42;5.20;99.90
47961;DHT22;33721;48.852;9.936;2023-02-03T14:57:40;5.20;99.90
47961;DHT22;33721;48.852;9.936;2023-02-03T15:05:39;5.20;99.90
47961;DHT22;33721;48.852;9.936;2023-02-03T15:08:32;5.20;99.90
47961;DHT22;33721;48.852;9.936;2023-02-03T15:11:00;5.30;99.90
47961;DHT22;33721;48.852;9.936;2023-02-03T15:13:38;5.30;99.90
47961;DHT22;33721;48.852;9.936;2023-02-03T15:16:04;5.40;99.90
47961;DHT22;33721;48.852;9.936;2023-02-03T15:18:37;5.40;99.90
47961;DHT22;33721;48.852;9.936;2023-02-03T15:21:05;5.40;99.90
47961;DHT22;33721;48.852;9.936;2023-02-03T15:23:42;5.50;99.90
47961;DHT22;33721;48.852;9.936;2023-02-03T15:28:59;5.50;99.90
47961;DHT22;33721;48.852;9.936;2023-02-03T15:31:29;5.60;99.90
47961;DHT22;33721;48.852;9.936;2023-02-03T15:34:03;5.60;99.90
47961;DHT22;33721;48.852;9.936;2023-02-03T15:36:43;5.60;99.90
47961;DHT22;33721;48.852;9.936;2023-02-03T15:39:33;5.70;99.90
47961;DHT22;33721;48.852;9.936;2023-02-03T15:42:04;5.80;99.90
47961;DHT22;33721;48.852;9.936;2023-02-03T15:44:39;5.70;99.90
47961;DHT22;33721;48.852;9.936;2023-02-03T15:47:31;5.70;99.90
47961;DHT22;33721;48.852;9.936;2023-02-03T15:50:07;5.60;99.90
47961;DHT22;33721;48.852;9.936;2023-02-03T15:52:36;5.60;99.90
47961;DHT22;33721;48.852;9.936;2023-02-03T15:55:43;5.70;99.90
47961;DHT22;33721;48.852;9.936;2023-02-03T15:58:02;5.70;99.90
47961;DHT22;33721;48.852;9.936;2023-02-03T16:00:34;5.70;99.90
47961;DHT22;33721;48.852;9.936;2023-02-03T16:03:05;5.60;99.90
47961;DHT22;33721;48.852;9.936;2023-02-03T16:05:39;5.60;99.90
47961;DHT22;33721;48.852;9.936;2023-02-03T16:08:46;5.60;99.90
47961;DHT22;33721;48.852;9.936;2023-02-03T16:11:24;5.60;99.90
47961;DHT22;33721;48.852;9.936;2023-02-03T16:13:51;5.70;99.90
47961;DHT22;33721;48.852;9.936;2023-02-03T16:16:20;5.70;99.90
47961;DHT22;33721;48.852;9.936;2023-02-03T16:19:13;5.60;99.90
47961;DHT22;33721;48.852;9.936;2023-02-03T16:24:43;5.60;99.90
47961;DHT22;33721;48.852;9.936;2023-02-03T16:35:53;5.70;99.90
47961;DHT22;33721;48.852;9.936;2023-02-03T16:38:37;5.60;99.90
47961;DHT22;33721;48.852;9.936;2023-02-03T16:41:21;5.60;99.90
47961;DHT22;33721;48.852;9.936;2023-02-03T16:44:09;5.60;99.90
47961;DHT22;33721;48.852;9.936;2023-02-03T16:46:54;5.60;99.90
47961;DHT22;33721;48.852;9.936;2023-02-03T16:49:38;5.60;99.90
47961;DHT22;33721;48.852;9.936;2023-02-03T16:52:22;5.60;99.90
47961;DHT22;33721;48.852;9.936;2023-02-03T16:54:48;5.70;99.90
47961;DHT22;33721;48.852;9.936;2023-02-03T16:57:13;5.70;99.90
47961;DHT22;33721;48.852;9.936;2023-02-03T16:59:39;5.70;99.90
47961;DHT22;33721;48.852;9.936;2023-02-03T17:02:05;5.70;99.90
47961;DHT22;33721;48.852;9.936;2023-02-03T17:04:31;5.80;99.90
47961;DHT22;33721;48.852;9.936;2023-02-03T17:06:57;5.80;99.90
47961;DHT22;33721;48.852;9.936;2023-02-03T17:09:22;5.80;99.90
47961;DHT22;33721;48.852;9.936;2023-02-03T17:11:49;5.70;99.90
47961;DHT22;33721;48.852;9.936;2023-02-03T17:14:16;5.80;99.90
47961;DHT22;33721;48.852;9.936;2023-02-03T17:16:41;5.80;99.90
47961;DHT22;33721;48.852;9.936;2023-02-03T17:19:13;5.80;99.90
47961;DHT22;33721;48.852;9.936;2023-02-03T17:21:41;5.70;99.90
47961;DHT22;33721;48.852;9.936;2023-02-03T17:24:06;5.80;99.90
47961;DHT22;33721;48.852;9.936;2023-02-03T17:26:32;5.70;99.90
47961;DHT22;33721;48.852;9.936;2023-02-03T17:28:58;5.70;99.90
47961;DHT22;33721;48.852;9.936;2023-02-03T17:31:28;5.70;99.90
47961;DHT22;33721;48.852;9.936;2023-02-03T17:33:54;5.80;99.90
47961;DHT22;33721;48.852;9.936;2023-02-03T17:36:20;5.80;99.90
47961;DHT22;33721;48.852;9.936;2023-02-03T17:38:51;5.70;99.90
47961;DHT22;33721;48.852;9.936;2023-02-03T17:41:19;5.80;99.90
47961;DHT22;33721;48.852;9.936;2023-02-03T17:43:46;5.80;99.90
47961;DHT22;33721;48.852;9.936;2023-02-03T17:46:14;5.80;99.90
47961;DHT22;33721;48.852;9.936;2023-02-03T17:48:40;5.80;99.90
47961;DHT22;33721;48.852;9.936;2023-02-03T17:51:18;5.80;99.90
47961;DHT22;33721;48.852;9.936;2023-02-03T17:53:46;5.80;99.90
47961;DHT22;33721;48.852;9.936;2023-02-03T17:56:14;5.80;99.90
47961;DHT22;33721;48.852;9.936;2023-02-03T17:58:41;5.80;99.90
47961;DHT22;33721;48.852;9.936;2023-02-03T18:01:16;5.80;99.90
47961;DHT22;33721;48.852;9.936;2023-02-03T18:06:12;5.90;99.90
47961;DHT22;33721;48.852;9.936;2023-02-03T18:08:39;5.90;99.90
47961;DHT22;33721;48.852;9.936;2023-02-03T18:11:05;5.90;99.90
47961;DHT22;33721;48.852;9.936;2023-02-03T18:13:34;5.90;99.90
47961;DHT22;33721;48.852;9.936;2023-02-03T18:16:01;5.90;99.90
47961;DHT22;33721;48.852;9.936;2023-02-03T18:18:27;5.90;99.90
47961;DHT22;33721;48.852;9.936;2023-02-03T18:20:53;5.90;99.90
47961;DHT22;33721;48.852;9.936;2023-02-03T18:23:19;6.00;99.90
47961;DHT22;33721;48.852;9.936;2023-02-03T18:25:51;6.00;99.90
47961;DHT22;33721;48.852;9.936;2023-02-03T18:28:16;6.00;99.90
47961;DHT22;33721;48.852;9.936;2023-02-03T18:30:42;6.10;99.90
47961;DHT22;33721;48.852;9.936;2023-02-03T18:33:07;6.10;99.90
47961;DHT22;33721;48.852;9.936;2023-02-03T18:35:33;6.00;99.90
47961;DHT22;33721;48.852;9.936;2023-02-03T18:37:59;6.00;99.90
47961;DHT22;33721;48.852;9.936;2023-02-03T18:40:24;6.00;99.90
47961;DHT22;33721;48.852;9.936;2023-02-03T18:42:50;6.00;99.90
47961;DHT22;33721;48.852;9.936;2023-02-03T18:45:15;6.00;99.90
47961;DHT22;33721;48.852;9.936;2023-02-03T18:47:41;6.00;99.90
47961;DHT22;33721;48.852;9.936;2023-02-03T18:50:07;6.10;99.90
47961;DHT22;33721;48.852;9.936;2023-02-03T18:52:33;6.10;99.90
47961;DHT22;33721;48.852;9.936;2023-02-03T18:54:58;6.00;99.90
47961;DHT22;33721;48.852;9.936;2023-02-03T18:57:24;6.00;99.90
47961;DHT22;33721;48.852;9.936;2023-02-03T18:59:50;6.00;99.90
47961;DHT22;33721;48.852;9.936;2023-02-03T19:02:16;6.00;99.90
47961;DHT22;33721;48.852;9.936;2023-02-03T19:04:41;6.10;99.90